Time;durP1;ratioP1;P1;durP2;ratioP2;P2;SDS_P1;SDS_P2;PMS_P1;PMS_P2;Temp;Humidity;BMP_temperature;BMP_pressure;BME280_temperature;BME280_humidity;BME280_pressure;Samples;Min_cycle;Max_cycle;Signal;HPM_P1;HPM_P2
2024/04/04 00:01:44;;;;;;;;;;;;;;;;;;6358208;28;19982;-61
2024/04/04 00:04:47;;;;;;;;;;;;;;;;;;6356531;28;19987;-62
2024/04/04 00:07:48;;;;;;;;;;;;;;;;;;6371809;27;20220;-61
2024/04/04 00:10:51;;;;;;;;;;;;;;;;;;6358682;27;20275;-61
2024/04/04 00:13:53;;;;;;;;;;;;;;;;;;6371964;27;20059;-61
2024/04/04 00:16:57;;;;;;;;;;;;;;;;;;6357569;27;20006;-61
2024/04/04 00:19:58;;;;;;;;;;;;;;;;;;6357493;28;20155;-61
2024/04/04 00:23:00;;;;;;;;;;;;;;;;;;6357251;27;19979;-61
2024/04/04 00:26:04;;;;;;;;;;;;;;;;;;6339698;28;20162;-61
2024/04/04 00:29:06;;;;;;;;;;;;;;;;;;6356790;28;20200;-60
2024/04/04 00:32:09;;;;;;;;;;;;;;;;;;6356817;28;19974;-61
2024/04/04 00:35:11;;;;;;;;;;;;;;;;;;6356628;28;19991;-61
2024/04/04 00:38:13;;;;;;;;;;;;;;;;;;6356636;27;19987;-60
2024/04/04 00:41:16;;;;;;;;;;;;;;;;;;6340277;28;19979;-62
2024/04/04 00:44:17;;;;;;;;;;;;;;;;;;6355884;27;19986;-62
2024/04/04 00:47:21;;;;;;;;;;;;;;;;;;6356394;27;19979;-62
2024/04/04 00:50:22;;;;;;;;;;;;;;;;;;6356433;27;19978;-61
2024/04/04 00:53:25;;;;;;;;;;;;;;;;;;6357438;27;19979;-61
2024/04/04 00:56:26;;;;;;;;;;;;;;;;;;6356780;27;19991;-61
2024/04/04 00:59:29;;;;;;;;;;;;;;;;;;6358044;27;19983;-61
2024/04/04 01:02:32;;;;;;;;;;;;;;;;;;6355983;27;20002;-61
2024/04/04 01:05:35;;;;;;;;;;;;;;;;;;6356501;27;19986;-60
2024/04/04 01:08:37;;;;;;;;;;;;;;;;;;6356172;27;20227;-61
2024/04/04 01:11:38;;;;;;;;;;;;;;;;;;6373194;27;19991;-61
2024/04/04 01:14:41;;;;;;;;;;;;;;;;;;6355652;27;19994;-61
2024/04/04 01:17:45;;;;;;;;;;;;;;;;;;6356033;27;20071;-62
2024/04/04 01:20:46;;;;;;;;;;;;;;;;;;6356585;27;19983;-62
2024/04/04 01:23:50;;;;;;;;;;;;;;;;;;6355751;27;19986;-61
2024/04/04 01:26:51;;;;;;;;;;;;;;;;;;6356237;27;20228;-62
2024/04/04 01:29:54;;;;;;;;;;;;;;;;;;6355656;27;20058;-62
2024/04/04 01:32:55;;;;;;;;;;;;;;;;;;6355404;27;19978;-62
2024/04/04 01:35:58;;;;;;;;;;;;;;;;;;6356328;27;19975;-61
2024/04/04 01:39:01;;;;;;;;;;;;;;;;;;6355062;27;20063;-62
2024/04/04 01:42:04;;;;;;;;;;;;;;;;;;6356150;27;20006;-61
2024/04/04 01:45:06;;;;;;;;;;;;;;;;;;6355677;27;19986;-61
2024/04/04 01:48:08;;;;;;;;;;;;;;;;;;6372598;27;20223;-62
2024/04/04 01:51:09;;;;;;;;;;;;;;;;;;6341716;28;19980;-62
2024/04/04 01:54:15;;;;;;;;;;;;;;;;;;6338333;28;19982;-62
2024/04/04 01:57:17;;;;;;;;;;;;;;;;;;6338669;28;19979;-61
2024/04/04 02:00:19;;;;;;;;;;;;;;;;;;6338895;28;19983;-61
2024/04/04 02:03:22;;;;;;;;;;;;;;;;;;6341622;28;19979;-61
2024/04/04 02:06:24;;;;;;;;;;;;;;;;;;6342640;28;19978;-62
2024/04/04 02:09:29;;;;;;;;;;;;;;;;;;6341836;28;20247;-62
2024/04/04 02:12:30;;;;;;;;;;;;;;;;;;6316788;28;19987;-61
2024/04/04 02:15:38;;;;;;;;;;;;;;;;;;6317718;28;19987;-61
2024/04/04 02:18:40;;;;;;;;;;;;;;;;;;6318222;28;19975;-61
2024/04/04 02:21:42;;;;;;;;;;;;;;;;;;6318046;28;19983;-61
2024/04/04 02:24:45;;;;;;;;;;;;;;;;;;6317585;28;19980;-61
2024/04/04 02:27:48;;;;;;;;;;;;;;;;;;6330853;28;19979;-61
2024/04/04 02:30:50;;;;;;;;;;;;;;;;;;6342454;28;19987;-62
2024/04/04 02:33:52;;;;;;;;;;;;;;;;;;6343034;28;20223;-61
2024/04/04 02:36:54;;;;;;;;;;;;;;;;;;6343313;28;19978;-62
2024/04/04 02:39:58;;;;;;;;;;;;;;;;;;6343051;28;20030;-62
2024/04/04 02:43:00;;;;;;;;;;;;;;;;;;6341691;27;20062;-61
2024/04/04 02:46:02;;;;;;;;;;;;;;;;;;6348880;27;19991;-61
2024/04/04 02:49:04;;;;;;;;;;;;;;;;;;6342861;28;19991;-61
2024/04/04 02:52:06;;;;;;;;;;;;;;;;;;6343540;28;19982;-62
2024/04/04 02:55:09;;;;;;;;;;;;;;;;;;6342934;28;20280;-62
2024/04/04 02:58:12;;;;;;;;;;;;;;;;;;6341721;27;19983;-61
2024/04/04 03:01:13;;;;;;;;;;;;;;;;;;6332279;28;19979;-62
2024/04/04 03:04:16;;;;;;;;;;;;;;;;;;6321363;28;20259;-61
2024/04/04 03:07:17;;;;;;;;;;;;;;;;;;6334001;28;19991;-61
2024/04/04 03:10:21;;;;;;;;;;;;;;;;;;6316463;28;19987;-62
2024/04/04 03:13:24;;;;;;;;;;;;;;;;;;6330425;28;19986;-61
2024/04/04 03:16:25;;;;;;;;;;;;;;;;;;6341412;28;20066;-62
2024/04/04 03:19:27;;;;;;;;;;;;;;;;;;6341671;28;19975;-62
2024/04/04 03:22:29;;;;;;;;;;;;;;;;;;6315800;28;19999;-62
2024/04/04 03:25:33;;;;;;;;;;;;;;;;;;6318722;28;19994;-62
2024/04/04 03:28:36;;;;;;;;;;;;;;;;;;6342238;28;19986;-62
2024/04/04 03:31:39;;;;;;;;;;;;;;;;;;6341944;28;19975;-61
2024/04/04 03:34:41;;;;;;;;;;;;;;;;;;6341514;28;20268;-61
2024/04/04 03:37:44;;;;;;;;;;;;;;;;;;6331632;28;20233;-61
2024/04/04 03:40:54;;;;;;;;;;;;;;;;;;6315901;28;20021;-61
2024/04/04 03:43:57;;;;;;;;;;;;;;;;;;6316381;28;19995;-62
2024/04/04 03:46:59;;;;;;;;;;;;;;;;;;6324010;28;20003;-61
2024/04/04 03:50:01;;;;;;;;;;;;;;;;;;6357667;27;19979;-61
2024/04/04 03:53:03;;;;;;;;;;;;;;;;;;6358369;28;19983;-61
2024/04/04 03:56:07;;;;;;;;;;;;;;;;;;6358399;28;19983;-61
2024/04/04 03:59:09;;;;;;;;;;;;;;;;;;6358177;28;19998;-61
2024/04/04 04:02:11;;;;;;;;;;;;;;;;;;6357608;28;20271;-61
2024/04/04 04:05:14;;;;;;;;;;;;;;;;;;6357246;27;19987;-61
2024/04/04 04:08:16;;;;;;;;;;;;;;;;;;6358080;28;20163;-61
2024/04/04 04:11:20;;;;;;;;;;;;;;;;;;6340278;27;20002;-62
2024/04/04 04:14:22;;;;;;;;;;;;;;;;;;6358176;27;19986;-61
2024/04/04 04:17:25;;;;;;;;;;;;;;;;;;6357281;27;19984;-61
2024/04/04 04:23:47;;;;;;;;;;;;;;;;;;6357557;27;19979;-60
2024/04/04 04:26:51;;;;;;;;;;;;;;;;;;6356296;27;19994;-60
2024/04/04 04:29:53;;;;;;;;;;;;;;;;;;6356615;27;19978;-60
2024/04/04 04:32:55;;;;;;;;;;;;;;;;;;6357569;27;20089;-60
2024/04/04 04:35:56;;;;;;;;;;;;;;;;;;6356502;27;19979;-61
2024/04/04 04:38:59;;;;;;;;;;;;;;;;;;6357562;27;20298;-62
2024/04/04 04:42:02;;;;;;;;;;;;;;;;;;6391427;27;20073;-62
2024/04/04 04:45:06;;;;;;;;;;;;;;;;;;6356127;27;19987;-62
2024/04/04 04:48:08;;;;;;;;;;;;;;;;;;6356628;27;19970;-63
2024/04/04 04:51:11;;;;;;;;;;;;;;;;;;6356185;27;19978;-61
2024/04/04 04:54:12;;;;;;;;;;;;;;;;;;6357448;27;19975;-61
2024/04/04 04:57:16;;;;;;;;;;;;;;;;;;6356995;27;19915;-61
2024/04/04 05:00:22;;;;;;;;;;;;;;;;;;6356607;27;19979;-62
2024/04/04 05:03:25;;;;;;;;;;;;;;;;;;6356714;28;19979;-61
2024/04/04 05:06:28;;;;;;;;;;;;;;;;;;6356480;28;20210;-62
2024/04/04 05:09:30;;;;;;;;;;;;;;;;;;6356376;27;19987;-61
2024/04/04 05:12:34;;;;;;;;;;;;;;;;;;6356715;28;19974;-62
2024/04/04 05:15:42;;;;;;;;;;;;;;;;;;6356370;28;19979;-62
2024/04/04 05:18:45;;;;;;;;;;;;;;;;;;6356537;28;19974;-61
2024/04/04 05:21:47;;;;;;;;;;;;;;;;;;6339505;28;19978;-60
2024/04/04 05:24:49;;;;;;;;;;;;;;;;;;6356278;27;20007;-62
2024/04/04 05:27:52;;;;;;;;;;;;;;;;;;6356504;28;19979;-61
2024/04/04 05:30:55;;;;;;;;;;;;;;;;;;6356259;28;20208;-64
2024/04/04 05:33:57;;;;;;;;;;;;;;;;;;6356335;28;20133;-61
2024/04/04 05:36:59;;;;;;;;;;;;;;;;;;6356060;28;19974;-64
2024/04/04 05:40:01;;;;;;;;;;;;;;;;;;6390767;27;20261;-61
2024/04/04 05:43:05;;;;;;;;;;;;;;;;;;6391053;27;19982;-61
2024/04/04 05:46:07;;;;;;;;;;;;;;;;;;6338654;28;19971;-62
2024/04/04 05:49:10;;;;;;;;;;;;;;;;;;6356020;28;19982;-61
2024/04/04 05:52:11;;;;;;;;;;;;;;;;;;6355091;28;19983;-60
2024/04/04 05:55:14;;;;;;;;;;;;;;;;;;6355225;27;20275;-60
2024/04/04 05:58:17;;;;;;;;;;;;;;;;;;6347403;28;19974;-61
2024/04/04 06:01:19;;;;;;;;;;;;;;;;;;6330118;28;19983;-61
2024/04/04 06:04:21;;;;;;;;;;;;;;;;;;6331321;28;19984;-62
2024/04/04 06:07:23;;;;;;;;;;;;;;;;;;6329823;28;19979;-62
2024/04/04 06:10:24;;;;;;;;;;;;;;;;;;6329584;28;19990;-61
2024/04/04 06:13:28;;;;;;;;;;;;;;;;;;6338643;28;20065;-61
2024/04/04 06:16:30;;;;;;;;;;;;;;;;;;6338692;28;20067;-61
2024/04/04 06:19:33;;;;;;;;;;;;;;;;;;6338705;28;20144;-62
2024/04/04 06:22:35;;;;;;;;;;;;;;;;;;6339320;28;20244;-62
2024/04/04 06:25:37;;;;;;;;;;;;;;;;;;6338424;28;19987;-62
2024/04/04 06:28:40;;;;;;;;;;;;;;;;;;6355840;28;19978;-61
2024/04/04 06:31:42;;;;;;;;;;;;;;;;;;6355359;28;19983;-61
2024/04/04 06:34:44;;;;;;;;;;;;;;;;;;6355662;27;19987;-61
2024/04/04 06:37:48;;;;;;;;;;;;;;;;;;6355966;27;20013;-60
2024/04/04 06:40:50;;;;;;;;;;;;;;;;;;6354879;28;20151;-61
2024/04/04 06:43:53;;;;;;;;;;;;;;;;;;6355682;28;20106;-61
2024/04/04 06:46:57;;;;;;;;;;;;;;;;;;6355029;28;20055;-61
2024/04/04 06:49:58;;;;;;;;;;;;;;;;;;6358677;27;19987;-61
2024/04/04 06:53:01;;;;;;;;;;;;;;;;;;6360038;28;19979;-61
2024/04/04 06:56:03;;;;;;;;;;;;;;;;;;6358939;28;19979;-61
2024/04/04 06:59:07;;;;;;;;;;;;;;;;;;6360026;28;19982;-61
2024/04/04 07:02:09;;;;;;;;;;;;;;;;;;6358671;28;19982;-61
2024/04/04 07:05:11;;;;;;;;;;;;;;;;;;6358933;27;20059;-61
2024/04/04 07:08:13;;;;;;;;;;;;;;;;;;6359584;28;19975;-61
2024/04/04 07:11:15;;;;;;;;;;;;;;;;;;6358248;28;20025;-61
2024/04/04 07:14:19;;;;;;;;;;;;;;;;;;6359601;28;19971;-61
2024/04/04 07:17:20;;;;;;;;;;;;;;;;;;6358215;27;19978;-61
2024/04/04 07:20:23;;;;;;;;;;;;;;;;;;6358756;27;19970;-61
2024/04/04 07:23:25;;;;;;;;;;;;;;;;;;6359291;27;20112;-61
2024/04/04 07:26:27;;;;;;;;;;;;;;;;;;6358722;27;19982;-60
2024/04/04 07:29:30;;;;;;;;;;;;;;;;;;6358625;27;19994;-60
2024/04/04 07:32:32;;;;;;;;;;;;;;;;;;6359259;27;19979;-60
2024/04/04 07:35:34;;;;;;;;;;;;;;;;;;6358066;27;19983;-60
2024/04/04 07:38:37;;;;;;;;;;;;;;;;;;6359361;27;20018;-60
2024/04/04 07:41:40;;;;;;;;;;;;;;;;;;6357890;27;19987;-60
2024/04/04 07:44:44;;;;;;;;;;;;;;;;;;6358229;27;19991;-60
2024/04/04 07:47:46;;;;;;;;;;;;;;;;;;6358403;27;20228;-61
2024/04/04 07:50:48;;;;;;;;;;;;;;;;;;6358092;27;19974;-61
2024/04/04 07:53:50;;;;;;;;;;;;;;;;;;6358714;27;19982;-61
2024/04/04 07:56:52;;;;;;;;;;;;;;;;;;6358605;27;19992;-61
2024/04/04 07:59:56;;;;;;;;;;;;;;;;;;6356929;27;19982;-61
2024/04/04 08:02:59;;;;;;;;;;;;;;;;;;6358608;27;19999;-61
2024/04/04 08:06:01;;;;;;;;;;;;;;;;;;6357673;27;20137;-60
2024/04/04 08:09:03;;;;;;;;;;;;;;;;;;6358695;27;19994;-61
2024/04/04 08:12:07;;;;;;;;;;;;;;;;;;6337392;27;20046;-60
2024/04/04 08:15:12;;;;;;;;;;;;;;;;;;6357510;27;19946;-60
2024/04/04 08:18:13;;;;;;;;;;;;;;;;;;6357998;27;20239;-61
2024/04/04 08:21:16;;;;;;;;;;;;;;;;;;6357126;27;19947;-61
2024/04/04 08:24:19;;;;;;;;;;;;;;;;;;6357939;28;19982;-62
2024/04/04 08:27:21;;;;;;;;;;;;;;;;;;6356978;28;19983;-61
2024/04/04 08:30:25;;;;;;;;;;;;;;;;;;6357019;27;19974;-61
2024/04/04 08:33:27;;;;;;;;;;;;;;;;;;6357630;28;19983;-61
2024/04/04 08:36:30;;;;;;;;;;;;;;;;;;6357393;28;19994;-61
2024/04/04 08:39:33;;;;;;;;;;;;;;;;;;6357164;27;19979;-61
2024/04/04 08:42:35;;;;;;;;;;;;;;;;;;6357848;28;19983;-61
2024/04/04 08:45:44;;;;;;;;;;;;;;;;;;6356474;28;19982;-62
2024/04/04 08:48:45;;;;;;;;;;;;;;;;;;6357694;28;20106;-61
2024/04/04 08:51:53;;;;;;;;;;;;;;;;;;6356425;27;19986;-61
2024/04/04 08:54:54;;;;;;;;;;;;;;;;;;6356794;27;20140;-60
2024/04/04 08:57:57;;;;;;;;;;;;;;;;;;6357316;28;20060;-62
2024/04/04 09:01:00;;;;;;;;;;;;;;;;;;6356834;28;20255;-61
2024/04/04 09:04:02;;;;;;;;;;;;;;;;;;6349065;27;19983;-60
2024/04/04 09:07:04;;;;;;;;;;;;;;;;;;6356527;28;19987;-62
2024/04/04 09:10:07;;;;;;;;;;;;;;;;;;6356266;27;19979;-62
2024/04/04 09:13:09;;;;;;;;;;;;;;;;;;6356330;27;20051;-62
2024/04/04 09:16:13;;;;;;;;;;;;;;;;;;6356331;28;19978;-62
2024/04/04 09:19:15;;;;;;;;;;;;;;;;;;6356226;28;19998;-61
2024/04/04 09:22:18;;;;;;;;;;;;;;;;;;6356089;28;19986;-62
2024/04/04 09:25:21;;;;;;;;;;;;;;;;;;6338352;27;19991;-62
2024/04/04 09:28:23;;;;;;;;;;;;;;;;;;6355301;28;19982;-61
2024/04/04 09:31:27;;;;;;;;;;;;;;;;;;6356107;28;19978;-61
2024/04/04 09:34:29;;;;;;;;;;;;;;;;;;6356293;27;20151;-62
2024/04/04 09:37:31;;;;;;;;;;;;;;;;;;6356643;28;19979;-62
2024/04/04 09:40:34;;;;;;;;;;;;;;;;;;6356724;28;19983;-62
2024/04/04 09:43:35;;;;;;;;;;;;;;;;;;6357077;28;19982;-60
2024/04/04 09:46:40;;;;;;;;;;;;;;;;;;6390113;27;19978;-61
2024/04/04 09:49:42;;;;;;;;;;;;;;;;;;6356798;27;19978;-62
2024/04/04 09:52:44;;;;;;;;;;;;;;;;;;6356402;28;20059;-61
2024/04/04 09:55:46;;;;;;;;;;;;;;;;;;6356020;28;20074;-61
2024/04/04 09:58:48;;;;;;;;;;;;;;;;;;6356421;28;19978;-62
2024/04/04 10:01:53;;;;;;;;;;;;;;;;;;6355712;28;19982;-60
2024/04/04 10:04:54;;;;;;;;;;;;;;;;;;6355525;27;19983;-61
2024/04/04 10:08:06;;;;;;;;;;;;;;;;;;6356729;28;19974;-62
2024/04/04 10:11:08;;;;;;;;;;;;;;;;;;6355135;28;19915;-61
2024/04/04 10:14:14;;;;;;;;;;;;;;;;;;6356453;28;20129;-60
2024/04/04 10:17:17;;;;;;;;;;;;;;;;;;6355815;28;19986;-60
2024/04/04 10:20:21;;;;;;;;;;;;;;;;;;6355068;27;20144;-62
2024/04/04 10:23:24;;;;;;;;;;;;;;;;;;6355462;27;20255;-63
2024/04/04 10:26:27;;;;;;;;;;;;;;;;;;6361703;27;19974;-61
2024/04/04 10:29:30;;;;;;;;;;;;;;;;;;6344008;27;19983;-61
2024/04/04 10:32:33;;;;;;;;;;;;;;;;;;6360814;27;19978;-62
2024/04/04 10:35:36;;;;;;;;;;;;;;;;;;6360427;27;19983;-61
2024/04/04 10:38:37;;;;;;;;;;;;;;;;;;6366222;27;20101;-61
2024/04/04 10:41:40;;;;;;;;;;;;;;;;;;6368736;27;19998;-61
2024/04/04 10:44:42;;;;;;;;;;;;;;;;;;6360280;27;19979;-61
2024/04/04 10:47:47;;;;;;;;;;;;;;;;;;6377431;27;19987;-60
2024/04/04 10:50:48;;;;;;;;;;;;;;;;;;6360113;27;19978;-60
2024/04/04 10:53:51;;;;;;;;;;;;;;;;;;6360342;27;20051;-61
2024/04/04 10:56:54;;;;;;;;;;;;;;;;;;6359433;27;19982;-61
2024/04/04 10:59:55;;;;;;;;;;;;;;;;;;6359980;27;19987;-61
2024/04/04 11:03:00;;;;;;;;;;;;;;;;;;6360271;27;19982;-61
2024/04/04 11:06:03;;;;;;;;;;;;;;;;;;6359422;27;20137;-59
2024/04/04 11:09:10;;;;;;;;;;;;;;;;;;6359804;27;19990;-60
2024/04/04 11:12:14;;;;;;;;;;;;;;;;;;6359372;27;20124;-61
2024/04/04 11:15:16;;;;;;;;;;;;;;;;;;6359416;27;19975;-60
2024/04/04 11:18:19;;;;;;;;;;;;;;;;;;6359785;28;20113;-62
2024/04/04 11:21:22;;;;;;;;;;;;;;;;;;6359091;28;19982;-61
2024/04/04 11:24:25;;;;;;;;;;;;;;;;;;6359547;28;19979;-61
2024/04/04 11:27:27;;;;;;;;;;;;;;;;;;6358949;28;20262;-61
2024/04/04 11:30:29;;;;;;;;;;;;;;;;;;6358430;28;19978;-62
2024/04/04 11:33:33;;;;;;;;;;;;;;;;;;6342036;28;19983;-62
2024/04/04 11:36:34;;;;;;;;;;;;;;;;;;6358308;28;20070;-61
2024/04/04 11:39:37;;;;;;;;;;;;;;;;;;6358850;27;19978;-61
2024/04/04 11:42:39;;;;;;;;;;;;;;;;;;6359465;28;19991;-63
2024/04/04 11:45:41;;;;;;;;;;;;;;;;;;6358614;28;19987;-62
2024/04/04 11:48:45;;;;;;;;;;;;;;;;;;6359277;28;19979;-61
2024/04/04 11:51:48;;;;;;;;;;;;;;;;;;6358438;28;19978;-61
2024/04/04 11:54:50;;;;;;;;;;;;;;;;;;6358287;27;19983;-63
2024/04/04 11:57:53;;;;;;;;;;;;;;;;;;6358984;28;19983;-62
2024/04/04 12:00:55;;;;;;;;;;;;;;;;;;6357996;28;19982;-62
2024/04/04 12:03:59;;;;;;;;;;;;;;;;;;6358017;28;20027;-61
2024/04/04 12:07:00;;;;;;;;;;;;;;;;;;6357803;28;19982;-60
2024/04/04 12:10:03;;;;;;;;;;;;;;;;;;6357464;27;19982;-61
2024/04/04 12:13:06;;;;;;;;;;;;;;;;;;6340791;28;19978;-60
2024/04/04 12:16:08;;;;;;;;;;;;;;;;;;6357702;28;19983;-62
2024/04/04 12:19:27;;;;;;;;;;;;;;;;;;6358351;28;19983;-61
2024/04/04 12:22:30;;;;;;;;;;;;;;;;;;6358110;28;19987;-61
2024/04/04 12:25:32;;;;;;;;;;;;;;;;;;6357641;28;20259;-61
2024/04/04 12:28:34;;;;;;;;;;;;;;;;;;6357906;28;19974;-61
2024/04/04 12:31:37;;;;;;;;;;;;;;;;;;6357416;28;19987;-61
2024/04/04 12:34:39;;;;;;;;;;;;;;;;;;6340737;27;19975;-61
2024/04/04 12:37:42;;;;;;;;;;;;;;;;;;6358100;28;20125;-62
2024/04/04 12:40:44;;;;;;;;;;;;;;;;;;6357452;27;20184;-61
2024/04/04 12:43:46;;;;;;;;;;;;;;;;;;6358669;27;19982;-61
2024/04/04 12:46:48;;;;;;;;;;;;;;;;;;6356722;28;19982;-60
2024/04/04 12:49:51;;;;;;;;;;;;;;;;;;6357170;27;19987;-62
2024/04/04 12:52:54;;;;;;;;;;;;;;;;;;6357644;28;19987;-61
2024/04/04 12:55:55;;;;;;;;;;;;;;;;;;6357299;28;20228;-61
2024/04/04 12:58:58;;;;;;;;;;;;;;;;;;6357439;28;19982;-61
2024/04/04 13:02:01;;;;;;;;;;;;;;;;;;6356695;28;19971;-61
2024/04/04 13:05:05;;;;;;;;;;;;;;;;;;6356767;27;20002;-61
2024/04/04 13:08:08;;;;;;;;;;;;;;;;;;6357859;28;19974;-61
2024/04/04 13:11:09;;;;;;;;;;;;;;;;;;6356654;28;20006;-62
2024/04/04 13:14:12;;;;;;;;;;;;;;;;;;6356917;28;19974;-61
2024/04/04 13:17:13;;;;;;;;;;;;;;;;;;6356862;28;19979;-60
2024/04/04 13:20:17;;;;;;;;;;;;;;;;;;6356366;27;20107;-62
2024/04/04 13:23:20;;;;;;;;;;;;;;;;;;6356322;27;19982;-62
2024/04/04 13:26:22;;;;;;;;;;;;;;;;;;6355900;27;19975;-61
2024/04/04 13:29:23;;;;;;;;;;;;;;;;;;6356781;27;19979;-61
2024/04/04 13:32:26;;;;;;;;;;;;;;;;;;6355981;27;20005;-62
2024/04/04 13:35:30;;;;;;;;;;;;;;;;;;6338844;27;20247;-61
2024/04/04 13:38:32;;;;;;;;;;;;;;;;;;6356414;27;20237;-61
2024/04/04 13:41:34;;;;;;;;;;;;;;;;;;6355726;27;20251;-61
2024/04/04 13:44:36;;;;;;;;;;;;;;;;;;6355696;27;20221;-61
2024/04/04 13:47:39;;;;;;;;;;;;;;;;;;6356026;27;19975;-60
2024/04/04 13:50:43;;;;;;;;;;;;;;;;;;6356099;27;20003;-62
2024/04/04 13:53:44;;;;;;;;;;;;;;;;;;6356954;27;20247;-61
2024/04/04 13:56:47;;;;;;;;;;;;;;;;;;6356303;27;20002;-61
2024/04/04 13:59:48;;;;;;;;;;;;;;;;;;6360444;27;20014;-61
2024/04/04 14:02:51;;;;;;;;;;;;;;;;;;6361981;27;19987;-61
2024/04/04 14:05:54;;;;;;;;;;;;;;;;;;6361202;27;19982;-61
2024/04/04 14:08:57;;;;;;;;;;;;;;;;;;6361155;27;19982;-61
2024/04/04 14:11:58;;;;;;;;;;;;;;;;;;6360519;27;19974;-61
2024/04/04 14:15:00;;;;;;;;;;;;;;;;;;6360571;27;19983;-63
2024/04/04 14:18:04;;;;;;;;;;;;;;;;;;6361204;27;19990;-61
2024/04/04 14:21:07;;;;;;;;;;;;;;;;;;6360243;27;20042;-61
2024/04/04 14:24:09;;;;;;;;;;;;;;;;;;6360998;27;19978;-61
2024/04/04 14:27:11;;;;;;;;;;;;;;;;;;6360378;27;19983;-61
2024/04/04 14:30:13;;;;;;;;;;;;;;;;;;6360368;27;20012;-62
2024/04/04 14:33:15;;;;;;;;;;;;;;;;;;6360718;27;19983;-62
2024/04/04 14:36:19;;;;;;;;;;;;;;;;;;6359847;28;19983;-61
2024/04/04 14:39:21;;;;;;;;;;;;;;;;;;6360564;28;20256;-61
2024/04/04 14:42:23;;;;;;;;;;;;;;;;;;6360174;28;19982;-62
2024/04/04 14:45:25;;;;;;;;;;;;;;;;;;6360357;28;19986;-62
2024/04/04 14:48:27;;;;;;;;;;;;;;;;;;6360299;27;19982;-62
2024/04/04 14:51:31;;;;;;;;;;;;;;;;;;6359723;28;19993;-61
2024/04/04 14:54:33;;;;;;;;;;;;;;;;;;6359875;27;20046;-61
2024/04/04 14:57:36;;;;;;;;;;;;;;;;;;6360062;28;19979;-60
2024/04/04 15:00:38;;;;;;;;;;;;;;;;;;6355107;28;19978;-62
2024/04/04 15:03:40;;;;;;;;;;;;;;;;;;6359876;28;20148;-62
2024/04/04 15:06:44;;;;;;;;;;;;;;;;;;6359079;28;19982;-62
2024/04/04 15:09:45;;;;;;;;;;;;;;;;;;6358865;27;20014;-62
2024/04/04 15:12:48;;;;;;;;;;;;;;;;;;6359628;28;19980;-62
2024/04/04 15:15:49;;;;;;;;;;;;;;;;;;6359418;28;19979;-60
2024/04/04 15:18:52;;;;;;;;;;;;;;;;;;6359831;28;19990;-62
2024/04/04 15:21:55;;;;;;;;;;;;;;;;;;6359028;28;19998;-61
2024/04/04 15:24:57;;;;;;;;;;;;;;;;;;6359122;27;19999;-61
2024/04/04 15:27:59;;;;;;;;;;;;;;;;;;6359104;28;19982;-65
2024/04/04 15:31:04;;;;;;;;;;;;;;;;;;6359166;28;19987;-62
2024/04/04 15:34:06;;;;;;;;;;;;;;;;;;6342685;28;20329;-61
2024/04/04 15:37:09;;;;;;;;;;;;;;;;;;6358775;28;20164;-61
2024/04/04 15:40:11;;;;;;;;;;;;;;;;;;6358626;27;20248;-61
2024/04/04 15:43:14;;;;;;;;;;;;;;;;;;6359031;28;20061;-61
2024/04/04 15:46:16;;;;;;;;;;;;;;;;;;6358404;28;19970;-61
2024/04/04 15:49:18;;;;;;;;;;;;;;;;;;6358407;28;19982;-61
2024/04/04 15:52:21;;;;;;;;;;;;;;;;;;6392420;27;19975;-62
2024/04/04 15:55:23;;;;;;;;;;;;;;;;;;6358036;27;19979;-60
2024/04/04 15:58:25;;;;;;;;;;;;;;;;;;6358389;28;20011;-62
2024/04/04 16:01:28;;;;;;;;;;;;;;;;;;6357778;28;19987;-61
2024/04/04 16:04:29;;;;;;;;;;;;;;;;;;6341358;27;19974;-61
2024/04/04 16:07:33;;;;;;;;;;;;;;;;;;6357989;28;19983;-61
2024/04/04 16:10:34;;;;;;;;;;;;;;;;;;6357387;28;19983;-61
2024/04/04 16:13:38;;;;;;;;;;;;;;;;;;6357538;28;19986;-61
2024/04/04 16:16:39;;;;;;;;;;;;;;;;;;6357338;28;19998;-61
2024/04/04 16:19:42;;;;;;;;;;;;;;;;;;6357244;27;19979;-62
2024/04/04 16:22:45;;;;;;;;;;;;;;;;;;6357074;28;20153;-61
2024/04/04 16:25:47;;;;;;;;;;;;;;;;;;6358031;28;19994;-62
2024/04/04 16:28:50;;;;;;;;;;;;;;;;;;6357961;28;20137;-61
2024/04/04 16:31:51;;;;;;;;;;;;;;;;;;6356875;28;19991;-61
2024/04/04 16:34:53;;;;;;;;;;;;;;;;;;6339397;27;19987;-60
2024/04/04 16:37:58;;;;;;;;;;;;;;;;;;6357431;28;19975;-61
2024/04/04 16:41:00;;;;;;;;;;;;;;;;;;6357190;28;19987;-61
2024/04/04 16:44:02;;;;;;;;;;;;;;;;;;6357867;28;19974;-61
2024/04/04 16:47:04;;;;;;;;;;;;;;;;;;6351605;28;19978;-62
2024/04/04 16:50:06;;;;;;;;;;;;;;;;;;6340031;27;19979;-61
2024/04/04 16:53:10;;;;;;;;;;;;;;;;;;6340549;28;20066;-60
2024/04/04 16:56:12;;;;;;;;;;;;;;;;;;6340388;28;19979;-62
2024/04/04 16:59:14;;;;;;;;;;;;;;;;;;6340629;28;20026;-62
2024/04/04 17:02:16;;;;;;;;;;;;;;;;;;6339600;28;19987;-62
2024/04/04 17:05:19;;;;;;;;;;;;;;;;;;6338851;28;19978;-62
2024/04/04 17:08:22;;;;;;;;;;;;;;;;;;6340502;27;19998;-62
2024/04/04 17:11:25;;;;;;;;;;;;;;;;;;6334665;28;19987;-61
2024/04/04 17:14:27;;;;;;;;;;;;;;;;;;6314290;28;19983;-62
2024/04/04 17:17:29;;;;;;;;;;;;;;;;;;6314952;28;19983;-62
2024/04/04 17:20:31;;;;;;;;;;;;;;;;;;6314458;28;19983;-61
2024/04/04 17:23:35;;;;;;;;;;;;;;;;;;6315394;28;19983;-62
2024/04/04 17:26:37;;;;;;;;;;;;;;;;;;6316991;28;19988;-62
2024/04/04 17:29:39;;;;;;;;;;;;;;;;;;6339328;27;19983;-61
2024/04/04 17:32:42;;;;;;;;;;;;;;;;;;6339518;28;19978;-61
2024/04/04 17:35:47;;;;;;;;;;;;;;;;;;6322747;27;19983;-61
2024/04/04 17:38:51;;;;;;;;;;;;;;;;;;6340401;28;19979;-61
2024/04/04 17:41:54;;;;;;;;;;;;;;;;;;6339951;27;19991;-61
2024/04/04 17:44:56;;;;;;;;;;;;;;;;;;6339815;28;19990;-62
2024/04/04 17:47:58;;;;;;;;;;;;;;;;;;6339971;28;19995;-61
2024/04/04 17:51:00;;;;;;;;;;;;;;;;;;6356593;27;20266;-63
2024/04/04 17:54:04;;;;;;;;;;;;;;;;;;6391121;27;19982;-62
2024/04/04 17:57:06;;;;;;;;;;;;;;;;;;6356651;27;19984;-61
2024/04/04 18:00:10;;;;;;;;;;;;;;;;;;6348817;28;19987;-61
2024/04/04 18:03:15;;;;;;;;;;;;;;;;;;6331816;28;19975;-62
2024/04/04 18:06:17;;;;;;;;;;;;;;;;;;6331044;28;19983;-61
2024/04/04 18:09:21;;;;;;;;;;;;;;;;;;6331452;28;19979;-62
2024/04/04 18:12:23;;;;;;;;;;;;;;;;;;6338548;28;19982;-62
2024/04/04 18:15:28;;;;;;;;;;;;;;;;;;6339316;28;19953;-63
2024/04/04 18:18:30;;;;;;;;;;;;;;;;;;6323045;28;20169;-61
2024/04/04 18:21:35;;;;;;;;;;;;;;;;;;6339114;28;19986;-61
2024/04/04 18:24:38;;;;;;;;;;;;;;;;;;6339508;28;19983;-61
2024/04/04 18:27:41;;;;;;;;;;;;;;;;;;6349889;27;19990;-62
2024/04/04 18:30:43;;;;;;;;;;;;;;;;;;6356400;28;20162;-62
2024/04/04 18:33:47;;;;;;;;;;;;;;;;;;6356127;27;20066;-61
2024/04/04 18:36:49;;;;;;;;;;;;;;;;;;6356329;27;19994;-61
2024/04/04 18:39:53;;;;;;;;;;;;;;;;;;6356264;27;19995;-61
2024/04/04 18:42:55;;;;;;;;;;;;;;;;;;6355808;28;19975;-61
2024/04/04 18:45:59;;;;;;;;;;;;;;;;;;6359083;28;19982;-61
2024/04/04 18:49:03;;;;;;;;;;;;;;;;;;6360678;28;20145;-61
2024/04/04 18:52:04;;;;;;;;;;;;;;;;;;6360690;28;19996;-62
2024/04/04 18:55:08;;;;;;;;;;;;;;;;;;6360250;27;20161;-61
2024/04/04 18:58:11;;;;;;;;;;;;;;;;;;6360999;28;19979;-61
2024/04/04 19:01:13;;;;;;;;;;;;;;;;;;6359931;28;19984;-60
2024/04/04 19:04:16;;;;;;;;;;;;;;;;;;6360426;28;19983;-61
2024/04/04 19:07:17;;;;;;;;;;;;;;;;;;6359641;28;19982;-60
2024/04/04 19:10:21;;;;;;;;;;;;;;;;;;6359816;27;19982;-62
2024/04/04 19:13:23;;;;;;;;;;;;;;;;;;6360153;28;19987;-61
2024/04/04 19:16:25;;;;;;;;;;;;;;;;;;6342217;28;20050;-61
2024/04/04 19:19:29;;;;;;;;;;;;;;;;;;6359376;27;20162;-60
2024/04/04 19:22:31;;;;;;;;;;;;;;;;;;6360032;28;19983;-60
2024/04/04 19:25:34;;;;;;;;;;;;;;;;;;6359000;28;19986;-61
2024/04/04 19:28:37;;;;;;;;;;;;;;;;;;6359931;28;19975;-63
2024/04/04 19:31:39;;;;;;;;;;;;;;;;;;6358861;28;20055;-61
2024/04/04 19:34:41;;;;;;;;;;;;;;;;;;6358812;27;19987;-60
2024/04/04 19:37:43;;;;;;;;;;;;;;;;;;6359187;28;19979;-61
2024/04/04 19:40:49;;;;;;;;;;;;;;;;;;6358460;28;20221;-63
2024/04/04 19:43:51;;;;;;;;;;;;;;;;;;6359573;28;20225;-61
2024/04/04 19:46:53;;;;;;;;;;;;;;;;;;6358626;28;19982;-60
2024/04/04 19:49:56;;;;;;;;;;;;;;;;;;6358777;27;20073;-61
2024/04/04 19:52:57;;;;;;;;;;;;;;;;;;6359179;28;20014;-61
2024/04/04 19:56:01;;;;;;;;;;;;;;;;;;6358538;28;20054;-61
2024/04/04 19:59:03;;;;;;;;;;;;;;;;;;6359285;28;20251;-61
2024/04/04 20:02:06;;;;;;;;;;;;;;;;;;6358447;28;19991;-61
2024/04/04 20:05:08;;;;;;;;;;;;;;;;;;6358357;27;19978;-61
2024/04/04 20:08:10;;;;;;;;;;;;;;;;;;6358901;28;20151;-62
2024/04/04 20:11:13;;;;;;;;;;;;;;;;;;6358002;28;19995;-60
2024/04/04 20:14:15;;;;;;;;;;;;;;;;;;6341154;28;19974;-62
2024/04/04 20:17:17;;;;;;;;;;;;;;;;;;6357571;28;19995;-61
2024/04/04 20:20:19;;;;;;;;;;;;;;;;;;6357300;27;20153;-61
2024/04/04 20:23:21;;;;;;;;;;;;;;;;;;6358067;27;19975;-62
2024/04/04 20:26:24;;;;;;;;;;;;;;;;;;6357145;27;20118;-62
2024/04/04 20:29:29;;;;;;;;;;;;;;;;;;6356967;27;19982;-61
2024/04/04 20:32:31;;;;;;;;;;;;;;;;;;6357590;27;20160;-61
2024/04/04 20:35:35;;;;;;;;;;;;;;;;;;6357293;27;19970;-61
2024/04/04 20:38:36;;;;;;;;;;;;;;;;;;6357316;27;19982;-61
2024/04/04 20:41:40;;;;;;;;;;;;;;;;;;6356932;27;20054;-61
2024/04/04 20:44:43;;;;;;;;;;;;;;;;;;6357153;27;19978;-61
2024/04/04 20:47:44;;;;;;;;;;;;;;;;;;6356966;27;19974;-61
2024/04/04 20:50:46;;;;;;;;;;;;;;;;;;6356546;27;19978;-61